Time;durP1;ratioP1;P1;durP2;ratioP2;P2;SDS_P1;SDS_P2;PMS_P1;PMS_P2;Temp;Humidity;BMP_temperature;BMP_pressure;BME280_temperature;BME280_humidity;BME280_pressure;Samples;Min_cycle;Max_cycle;Signal;HPM_P1;HPM_P2
2023/10/04 00:00:37;;;;;;;2.60;1.83;;;10.70;99.90;;;;;;6213392;28;20133;-77
2023/10/04 00:03:39;;;;;;;1.92;1.63;;;10.70;99.90;;;;;;6221708;28;20060;-77
2023/10/04 00:06:41;;;;;;;1.85;1.45;;;10.60;99.90;;;;;;6223913;28;20067;-78
2023/10/04 00:09:42;;;;;;;4.25;1.70;;;10.60;99.90;;;;;;6220100;28;20038;-78
2023/10/04 00:12:47;;;;;;;2.47;2.00;;;10.60;99.90;;;;;;6224794;28;20042;-77
2023/10/04 00:15:49;;;;;;;2.03;1.33;;;10.50;99.90;;;;;;6221090;28;20042;-77
2023/10/04 00:18:51;;;;;;;5.10;1.83;;;10.50;99.90;;;;;;6221383;28;20041;-77
2023/10/04 00:21:54;;;;;;;3.65;2.28;;;10.50;99.90;;;;;;6222039;28;20046;-77
2023/10/04 00:24:57;;;;;;;3.22;1.67;;;10.40;99.90;;;;;;6225089;28;20057;-77
2023/10/04 00:28:02;;;;;;;1.83;1.35;;;10.40;99.90;;;;;;6227472;28;20049;-77
2023/10/04 00:31:05;;;;;;;2.28;2.08;;;10.30;99.90;;;;;;6223213;28;20042;-77
2023/10/04 00:34:08;;;;;;;4.20;2.03;;;10.30;99.90;;;;;;6222117;28;20160;-77
2023/10/04 00:37:10;;;;;;;5.72;1.80;;;10.30;99.90;;;;;;6222441;28;20054;-78
2023/10/04 00:40:15;;;;;;;6.70;2.05;;;10.20;99.90;;;;;;6222805;28;20057;-78
2023/10/04 00:43:20;;;;;;;4.35;2.72;;;10.20;99.90;;;;;;6222240;28;20057;-78
2023/10/04 00:46:23;;;;;;;3.13;1.63;;;10.10;99.90;;;;;;6222594;28;20082;-78
2023/10/04 00:49:29;;;;;;;3.80;1.88;;;10.10;99.90;;;;;;6222761;28;20066;-77
2023/10/04 00:52:31;;;;;;;2.50;1.77;;;10.00;99.90;;;;;;6222526;28;20069;-78
2023/10/04 00:55:37;;;;;;;2.53;1.85;;;10.00;99.90;;;;;;6222018;28;20038;-77
2023/10/04 00:58:41;;;;;;;3.58;2.53;;;9.90;99.90;;;;;;6222281;28;20126;-77
2023/10/04 01:01:43;;;;;;;3.47;2.08;;;9.90;99.90;;;;;;6222171;28;20064;-77
2023/10/04 01:04:46;;;;;;;3.40;1.77;;;9.80;99.90;;;;;;6221802;28;20142;-77
2023/10/04 01:07:53;;;;;;;5.18;1.80;;;9.80;99.90;;;;;;6221100;28;20060;-77
2023/10/04 01:10:55;;;;;;;3.90;2.25;;;9.80;99.90;;;;;;6222065;28;20414;-78
2023/10/04 01:14:09;;;;;;;5.95;2.28;;;9.80;99.90;;;;;;6221748;28;20050;-77
2023/10/04 01:17:12;;;;;;;3.90;1.45;;;9.80;99.90;;;;;;6216037;28;20084;-77
2023/10/04 01:20:16;;;;;;;3.28;2.25;;;9.80;99.90;;;;;;6221086;28;20045;-77
2023/10/04 01:23:19;;;;;;;3.13;1.67;;;9.80;99.90;;;;;;6220101;28;20042;-77
2023/10/04 01:26:26;;;;;;;4.53;2.10;;;9.90;99.90;;;;;;6221080;28;20050;-77
2023/10/04 01:29:28;;;;;;;4.10;1.75;;;9.90;99.90;;;;;;6221263;28;20042;-77
2023/10/04 01:32:30;;;;;;;3.60;2.53;;;9.90;99.90;;;;;;6222163;28;20104;-78
2023/10/04 01:35:33;;;;;;;3.95;1.92;;;10.00;99.90;;;;;;6222918;28;20511;-78
2023/10/04 01:38:36;;;;;;;3.30;2.35;;;10.00;99.90;;;;;;6222753;28;20119;-78
2023/10/04 01:41:38;;;;;;;6.05;2.15;;;10.00;99.90;;;;;;6226003;28;20037;-78
2023/10/04 01:44:40;;;;;;;4.32;1.85;;;9.90;99.90;;;;;;6223144;28;20045;-77
2023/10/04 01:47:42;;;;;;;2.38;1.70;;;9.90;99.90;;;;;;6221583;28;20048;-77
2023/10/04 01:50:46;;;;;;;1.30;1.20;;;9.80;99.90;;;;;;6222242;28;20048;-78
2023/10/04 01:53:50;;;;;;;2.83;2.20;;;9.80;99.90;;;;;;6226814;28;20041;-77
2023/10/04 01:56:52;;;;;;;8.23;2.78;;;9.80;99.90;;;;;;6227465;28;20463;-78
2023/10/04 01:59:54;;;;;;;4.80;2.63;;;9.70;99.90;;;;;;6229040;28;20045;-77
2023/10/04 02:02:59;;;;;;;3.13;2.05;;;9.70;99.90;;;;;;6225996;28;20049;-78
2023/10/04 02:06:01;;;;;;;3.45;2.47;;;9.80;99.90;;;;;;6227526;28;20045;-78
2023/10/04 02:09:10;;;;;;;3.25;2.15;;;9.80;99.90;;;;;;6226963;28;20045;-77
2023/10/04 02:12:12;;;;;;;4.40;2.40;;;9.80;99.90;;;;;;6227623;28;20045;-78
2023/10/04 02:15:17;;;;;;;3.05;2.17;;;9.90;99.90;;;;;;6226697;28;20041;-78
2023/10/04 02:18:19;;;;;;;3.03;2.35;;;10.00;99.90;;;;;;6227938;28;20491;-78
2023/10/04 02:21:23;;;;;;;3.22;1.95;;;10.00;99.90;;;;;;6226539;28;20053;-78
2023/10/04 02:24:26;;;;;;;4.03;2.65;;;10.10;99.90;;;;;;6227917;28;20077;-78
2023/10/04 02:27:29;;;;;;;4.22;2.30;;;10.00;99.90;;;;;;6229364;28;20050;-78
2023/10/04 02:30:32;;;;;;;5.72;2.70;;;10.10;99.90;;;;;;6224477;28;20104;-78
2023/10/04 02:33:38;;;;;;;2.38;1.77;;;10.10;99.90;;;;;;6220556;28;20509;-78
2023/10/04 02:36:43;;;;;;;3.22;2.90;;;10.00;99.90;;;;;;6227026;28;20053;-78
2023/10/04 02:39:47;;;;;;;4.82;1.88;;;9.90;99.90;;;;;;6225970;28;20042;-78
2023/10/04 02:42:53;;;;;;;5.22;1.80;;;9.80;99.90;;;;;;6231316;28;20128;-78
2023/10/04 02:45:57;;;;;;;2.35;1.48;;;9.70;99.90;;;;;;6226864;28;20050;-78
2023/10/04 02:49:00;;;;;;;4.70;1.67;;;9.60;99.90;;;;;;6227322;28;20049;-78
2023/10/04 02:52:02;;;;;;;3.60;1.83;;;9.50;99.90;;;;;;6226316;28;20121;-77
2023/10/04 02:55:06;;;;;;;3.95;2.50;;;9.40;99.90;;;;;;6224662;28;20057;-77
2023/10/04 02:58:10;;;;;;;1.60;1.50;;;9.40;99.90;;;;;;6224982;28;20053;-77
2023/10/04 03:01:19;;;;;;;3.47;2.05;;;9.40;99.90;;;;;;6224469;28;20436;-77
2023/10/04 03:04:21;;;;;;;1.98;1.55;;;9.30;99.90;;;;;;6223983;28;20053;-77
2023/10/04 03:07:23;;;;;;;2.08;1.55;;;9.30;99.90;;;;;;6226395;28;20057;-77
2023/10/04 03:10:32;;;;;;;4.70;1.77;;;9.30;99.90;;;;;;6226139;28;20058;-77
2023/10/04 03:13:33;;;;;;;;;;;9.30;99.90;;;;;;6243346;28;20069;-77
2023/10/04 03:16:35;;;;;;;3.35;2.17;;;9.30;99.90;;;;;;6229515;28;20004;-77
2023/10/04 03:19:41;;;;;;;4.63;2.38;;;9.20;99.90;;;;;;6224715;28;20049;-77
2023/10/04 03:22:43;;;;;;;2.72;1.67;;;9.20;99.90;;;;;;6224318;28;20121;-77
2023/10/04 03:25:48;;;;;;;2.42;2.15;;;9.20;99.90;;;;;;6224160;28;20045;-77
2023/10/04 03:28:50;;;;;;;2.75;1.85;;;9.20;99.90;;;;;;6225014;28;20042;-78
2023/10/04 03:31:53;;;;;;;3.25;2.10;;;9.10;99.90;;;;;;6224136;28;20033;-77
2023/10/04 03:34:56;;;;;;;3.13;2.08;;;9.00;99.90;;;;;;6225339;28;20046;-77
2023/10/04 03:38:01;;;;;;;3.95;2.05;;;8.90;99.90;;;;;;6228890;28;20152;-77
2023/10/04 03:41:05;;;;;;;3.92;1.73;;;8.90;99.90;;;;;;6227289;28;20140;-77
2023/10/04 03:44:07;;;;;;;3.70;1.70;;;8.80;99.90;;;;;;6227890;28;20777;-78
2023/10/04 03:47:09;;;;;;;1.67;1.58;;;8.80;99.90;;;;;;6228150;28;20037;-77
2023/10/04 03:50:13;;;;;;;4.47;2.30;;;8.70;99.90;;;;;;6227816;28;20042;-78
2023/10/04 03:53:15;;;;;;;1.83;1.50;;;8.70;99.90;;;;;;6229669;28;20416;-77
2023/10/04 03:56:21;;;;;;;3.05;1.70;;;8.70;99.90;;;;;;6223411;28;20061;-77
2023/10/04 03:59:23;;;;;;;5.80;1.73;;;8.60;99.90;;;;;;6240162;28;20069;-77
2023/10/04 04:02:25;;;;;;;2.92;2.60;;;8.60;99.90;;;;;;6238183;28;20042;-78
2023/10/04 04:05:29;;;;;;;2.67;2.33;;;8.50;99.90;;;;;;6239939;28;20074;-77
2023/10/04 04:08:31;;;;;;;1.92;1.73;;;8.50;99.90;;;;;;6235983;28;20077;-77
2023/10/04 04:11:34;;;;;;;4.30;2.10;;;8.50;99.90;;;;;;6235316;28;20084;-77
2023/10/04 04:14:36;;;;;;;4.40;2.33;;;8.40;99.90;;;;;;6237539;28;20053;-77
2023/10/04 04:17:39;;;;;;;3.03;1.75;;;8.40;99.90;;;;;;6235809;28;20064;-77
2023/10/04 04:20:41;;;;;;;5.30;1.92;;;8.40;99.90;;;;;;6233599;28;20045;-77
2023/10/04 04:23:43;;;;;;;2.38;1.80;;;8.30;99.90;;;;;;6233309;28;20097;-78
2023/10/04 04:26:46;;;;;;;3.70;2.35;;;8.30;99.90;;;;;;6230234;28;20049;-77
2023/10/04 04:29:48;;;;;;;4.35;2.30;;;8.30;99.90;;;;;;6227686;28;20100;-77
2023/10/04 04:32:53;;;;;;;2.58;1.60;;;8.30;99.90;;;;;;6227044;28;20054;-76
2023/10/04 04:36:01;;;;;;;2.30;1.70;;;8.20;99.90;;;;;;6222669;28;20045;-77
2023/10/04 04:39:05;;;;;;;4.53;2.38;;;8.20;99.90;;;;;;6226826;28;20045;-77
2023/10/04 04:42:11;;;;;;;4.28;1.70;;;8.20;99.90;;;;;;6227640;28;20046;-77
2023/10/04 04:45:25;;;;;;;2.50;1.80;;;8.20;99.90;;;;;;6221181;28;20049;-77
2023/10/04 04:48:29;;;;;;;3.75;1.85;;;8.10;99.90;;;;;;6222995;28;20148;-78
2023/10/04 04:51:31;;;;;;;5.75;2.13;;;8.10;99.90;;;;;;6220351;28;20057;-77
2023/10/04 04:54:34;;;;;;;2.17;1.98;;;8.10;99.90;;;;;;6220764;28;20045;-78
2023/10/04 04:57:37;;;;;;;2.60;2.30;;;8.00;99.90;;;;;;6220689;28;20049;-77
2023/10/04 05:00:42;;;;;;;3.83;2.60;;;8.00;99.90;;;;;;6221951;28;20470;-77
2023/10/04 05:03:45;;;;;;;3.90;2.33;;;8.00;99.90;;;;;;6221520;28;20511;-77
2023/10/04 05:06:47;;;;;;;3.88;2.67;;;7.90;99.90;;;;;;6222794;28;20056;-79
2023/10/04 05:09:49;;;;;;;6.57;2.50;;;7.90;99.90;;;;;;6225652;28;20038;-79
2023/10/04 05:12:52;;;;;;;3.65;2.85;;;7.90;99.90;;;;;;6225829;28;20048;-79
2023/10/04 05:15:54;;;;;;;2.70;2.42;;;8.00;99.90;;;;;;6226259;28;20077;-79
2023/10/04 05:18:56;;;;;;;5.05;2.17;;;8.00;99.90;;;;;;6226445;28;20069;-78
2023/10/04 05:21:58;;;;;;;3.85;2.30;;;8.00;99.90;;;;;;6225895;28;20119;-78
2023/10/04 05:24:59;;;;;;;5.22;2.38;;;7.90;99.90;;;;;;6225766;28;20499;-79
2023/10/04 05:28:09;;;;;;;5.28;3.03;;;7.90;99.90;;;;;;6231570;28;20048;-79
2023/10/04 05:31:10;;;;;;;8.23;2.50;;;7.80;99.90;;;;;;6230193;28;20116;-78
2023/10/04 05:34:12;;;;;;;3.00;2.50;;;7.90;99.90;;;;;;6229928;28;20052;-78
2023/10/04 05:37:14;;;;;;;6.18;2.40;;;7.90;99.90;;;;;;6231116;28;20097;-79
2023/10/04 05:40:23;;;;;;;3.00;2.03;;;7.90;99.90;;;;;;6230002;28;20045;-80
2023/10/04 05:43:28;;;;;;;1.83;1.50;;;7.90;99.90;;;;;;6222374;28;20049;-80
2023/10/04 05:46:30;;;;;;;3.90;2.55;;;7.90;99.90;;;;;;6229286;28;20120;-80
2023/10/04 05:49:32;;;;;;;2.83;2.35;;;7.90;99.90;;;;;;6233908;28;20060;-78
2023/10/04 05:52:34;;;;;;;3.67;2.50;;;8.10;99.90;;;;;;6235050;28;20050;-80
2023/10/04 05:55:36;;;;;;;5.20;2.05;;;8.20;99.90;;;;;;6231853;28;20046;-80
2023/10/04 05:58:39;;;;;;;4.60;2.40;;;8.30;99.90;;;;;;6230741;28;20046;-80
2023/10/04 06:01:41;;;;;;;3.03;2.72;;;8.40;99.90;;;;;;6239084;28;20065;-79
2023/10/04 06:04:43;;;;;;;5.38;2.55;;;8.50;99.90;;;;;;6230911;28;20054;-79
2023/10/04 06:07:46;;;;;;;5.40;3.13;;;8.60;99.90;;;;;;6229571;28;20044;-79
2023/10/04 06:10:50;;;;;;;3.53;3.15;;;8.70;99.90;;;;;;6229767;28;20045;-79
2023/10/04 06:13:53;;;;;;;6.38;2.45;;;8.90;99.90;;;;;;6229484;28;20375;-78
2023/10/04 06:16:55;;;;;;;5.35;2.53;;;9.00;99.90;;;;;;6231194;28;20046;-79
2023/10/04 06:19:58;;;;;;;6.13;2.80;;;9.20;99.90;;;;;;6230518;28;20056;-79
2023/10/04 06:23:01;;;;;;;2.85;2.33;;;9.40;99.90;;;;;;6236643;28;20048;-79
2023/10/04 06:26:03;;;;;;;4.50;2.92;;;9.50;99.90;;;;;;6230301;28;20042;-79
2023/10/04 06:29:07;;;;;;;4.22;2.53;;;9.60;99.90;;;;;;6230275;28;20049;-79
2023/10/04 06:32:09;;;;;;;5.80;3.13;;;9.70;99.90;;;;;;6230979;28;20046;-78
2023/10/04 06:35:11;;;;;;;2.40;2.22;;;9.70;99.90;;;;;;6224924;28;20049;-79
2023/10/04 06:38:14;;;;;;;4.40;2.72;;;9.80;99.90;;;;;;6228252;28;20056;-79
2023/10/04 06:41:16;;;;;;;4.53;2.45;;;9.90;99.90;;;;;;6229970;28;20046;-80
2023/10/04 06:44:19;;;;;;;3.05;2.85;;;10.00;99.90;;;;;;6230685;28;20222;-80
2023/10/04 06:47:21;;;;;;;3.58;2.97;;;10.10;99.90;;;;;;6192635;28;20053;-79
2023/10/04 06:50:28;;;;;;;4.32;2.80;;;10.30;99.90;;;;;;6244957;28;20392;-79
2023/10/04 06:53:30;;;;;;;2.88;2.22;;;10.50;99.90;;;;;;6224605;28;20106;-81
2023/10/04 06:56:31;;;;;;;4.00;2.08;;;10.60;99.90;;;;;;6233254;28;20072;-79
2023/10/04 06:59:35;;;;;;;4.72;2.92;;;10.80;99.90;;;;;;6234046;28;20046;-79
2023/10/04 07:02:37;;;;;;;8.05;3.28;;;11.20;99.90;;;;;;6231194;28;20042;-79
2023/10/04 07:05:41;;;;;;;3.30;2.72;;;11.60;99.90;;;;;;6228395;28;20092;-80
2023/10/04 07:08:43;;;;;;;3.45;2.80;;;12.00;99.90;;;;;;6229374;28;20112;-79
2023/10/04 07:11:45;;;;;;;7.15;2.63;;;12.50;99.90;;;;;;6229284;28;20046;-79
2023/10/04 07:14:49;;;;;;;4.90;2.72;;;12.90;99.90;;;;;;6229205;28;20050;-79
2023/10/04 07:17:52;;;;;;;9.02;3.22;;;13.40;99.90;;;;;;6223502;28;20124;-78
2023/10/04 07:20:53;;;;;;;2.08;1.83;;;13.80;99.90;;;;;;6228658;28;20050;-79
2023/10/04 07:23:55;;;;;;;2.97;2.28;;;14.20;99.90;;;;;;6228213;28;20434;-79
2023/10/04 07:26:58;;;;;;;3.00;1.85;;;14.60;99.90;;;;;;6228166;28;20042;-80
2023/10/04 07:30:02;;;;;;;3.78;2.35;;;15.00;99.90;;;;;;6228018;28;20071;-79
2023/10/04 07:33:04;;;;;;;1.30;1.20;;;15.40;99.90;;;;;;6227254;28;20105;-79
2023/10/04 07:36:06;;;;;;;3.92;1.80;;;15.70;99.90;;;;;;6228155;28;20140;-78
2023/10/04 07:39:08;;;;;;;4.10;1.60;;;16.00;99.90;;;;;;6227795;28;20044;-80
2023/10/04 07:42:11;;;;;;;5.03;1.95;;;16.30;99.90;;;;;;6227593;28;20048;-78
2023/10/04 07:45:16;;;;;;;5.28;3.05;;;16.60;99.90;;;;;;6228288;28;20152;-79
2023/10/04 07:48:18;;;;;;;2.85;2.00;;;16.90;99.90;;;;;;6231728;28;20061;-80
2023/10/04 07:51:20;;;;;;;2.95;1.85;;;17.20;99.90;;;;;;6228285;28;20499;-78
2023/10/04 07:54:22;;;;;;;6.03;2.10;;;17.40;99.90;;;;;;6228645;28;20046;-79
2023/10/04 07:57:24;;;;;;;3.92;2.53;;;17.60;99.90;;;;;;6228584;28;20045;-79
2023/10/04 08:00:27;;;;;;;5.53;1.77;;;17.70;99.90;;;;;;6228607;28;20045;-79
2023/10/04 08:03:29;;;;;;;4.28;1.80;;;17.70;99.90;;;;;;6231250;28;20052;-78
2023/10/04 08:06:31;;;;;;;5.90;2.28;;;17.90;99.90;;;;;;6223125;28;20046;-80
2023/10/04 08:09:33;;;;;;;3.28;2.00;;;18.20;99.90;;;;;;6229805;28;20418;-78
2023/10/04 08:12:34;;;;;;;3.10;2.20;;;18.60;99.90;;;;;;6227615;28;20057;-78
2023/10/04 08:15:38;;;;;;;8.82;1.83;;;19.20;99.90;;;;;;6226755;28;20046;-79
2023/10/04 08:18:40;;;;;;;3.33;2.33;;;19.60;99.90;;;;;;6228003;28;20105;-80
2023/10/04 08:21:43;;;;;;;2.20;1.48;;;20.00;99.90;;;;;;6226583;28;20096;-80
2023/10/04 08:24:46;;;;;;;3.78;1.52;;;20.30;99.90;;;;;;6227089;28;20052;-78
2023/10/04 08:27:49;;;;;;;2.63;1.48;;;20.40;99.90;;;;;;6226970;28;20054;-81
2023/10/04 08:30:52;;;;;;;3.83;1.30;;;20.30;99.90;;;;;;6229033;28;20042;-78
2023/10/04 08:33:53;;;;;;;3.78;2.08;;;20.20;99.90;;;;;;6232998;28;20046;-79
2023/10/04 08:36:56;;;;;;;2.92;2.25;;;20.30;99.90;;;;;;6231835;28;20110;-80
2023/10/04 08:39:57;;;;;;;2.97;1.80;;;20.70;99.90;;;;;;6230482;28;20049;-79
2023/10/04 08:42:59;;;;;;;3.40;1.88;;;20.90;99.90;;;;;;6236742;28;20042;-79
2023/10/04 08:46:03;;;;;;;5.93;1.80;;;21.10;99.30;;;;;;6230657;28;20048;-79
2023/10/04 08:49:10;;;;;;;2.60;1.88;;;21.30;98.10;;;;;;6231792;28;20054;-80
2023/10/04 08:52:20;;;;;;;2.90;1.98;;;21.30;97.50;;;;;;6230243;28;20050;-80
2023/10/04 08:55:24;;;;;;;4.72;1.58;;;21.40;97.20;;;;;;6229662;28;20057;-80
2023/10/04 08:58:27;;;;;;;3.53;1.10;;;21.70;96.70;;;;;;6228173;28;20181;-80
2023/10/04 09:01:31;;;;;;;3.30;1.88;;;22.00;95.70;;;;;;6232931;28;20042;-80
2023/10/04 09:04:33;;;;;;;3.38;1.50;;;22.20;94.70;;;;;;6232895;28;20049;-79
2023/10/04 09:07:35;;;;;;;3.85;1.33;;;22.30;94.20;;;;;;6237649;28;20049;-80
2023/10/04 09:10:39;;;;;;;5.43;1.50;;;22.50;93.40;;;;;;6234725;28;20042;-80
2023/10/04 09:13:46;;;;;;;5.28;1.73;;;22.80;92.60;;;;;;6240386;28;20537;-80
2023/10/04 09:17:06;;;;;;;3.55;1.13;;;23.00;91.60;;;;;;6234128;28;20073;-79
2023/10/04 09:20:13;;;;;;;4.60;1.92;;;23.20;90.90;;;;;;6236297;28;20042;-79
2023/10/04 09:23:22;;;;;;;3.92;1.45;;;23.20;90.40;;;;;;6236790;28;20045;-79
2023/10/04 09:26:25;;;;;;;2.15;1.27;;;23.50;88.90;;;;;;6233597;28;20052;-81
2023/10/04 09:29:31;;;;;;;2.88;1.38;;;23.60;87.20;;;;;;6240657;28;20038;-79
2023/10/04 09:32:39;;;;;;;3.33;1.98;;;23.70;86.00;;;;;;6235607;28;20080;-79
2023/10/04 09:35:42;;;;;;;5.30;1.65;;;23.90;85.00;;;;;;6234184;28;20053;-79
2023/10/04 09:38:44;;;;;;;5.20;2.65;;;24.00;84.00;;;;;;6234413;28;20053;-79
2023/10/04 09:41:47;;;;;;;3.78;1.38;;;24.20;82.80;;;;;;6245453;28;20042;-79
2023/10/04 09:44:50;;;;;;;5.28;1.45;;;24.20;81.40;;;;;;6231833;28;20064;-79
2023/10/04 09:47:53;;;;;;;1.98;1.70;;;23.70;80.80;;;;;;6233112;28;20053;-79
2023/10/04 09:51:00;;;;;;;3.15;1.48;;;23.10;81.30;;;;;;6232509;28;20149;-79
2023/10/04 09:54:03;;;;;;;3.97;1.65;;;22.90;82.40;;;;;;6231914;28;20053;-80
2023/10/04 09:57:08;;;;;;;5.90;2.20;;;23.10;82.50;;;;;;6232877;28;20138;-80
2023/10/04 10:00:17;;;;;;;6.50;1.70;;;23.00;81.20;;;;;;6245258;28;20069;-77
2023/10/04 10:03:24;;;;;;;1.98;0.98;;;22.70;81.20;;;;;;6237939;28;20046;-78
2023/10/04 10:06:33;;;;;;;3.80;1.63;;;22.50;81.70;;;;;;6233563;28;20046;-80
2023/10/04 10:09:37;;;;;;;3.33;1.17;;;22.90;80.60;;;;;;6231927;28;20042;-79
2023/10/04 10:12:40;;;;;;;1.55;0.80;;;23.20;79.20;;;;;;6241738;23;20038;-79
2023/10/04 10:15:42;;;;;;;4.03;1.23;;;23.10;78.00;;;;;;6205890;28;20047;-79
2023/10/04 10:18:47;;;;;;;3.25;0.95;;;23.00;78.20;;;;;;6216022;28;20457;-80
2023/10/04 10:22:11;;;;;;;6.63;1.00;;;23.30;77.70;;;;;;6219051;28;20485;-79
2023/10/04 10:25:14;;;;;;;2.25;1.48;;;23.80;76.40;;;;;;6216433;28;20046;-78
2023/10/04 10:28:22;;;;;;;4.57;2.20;;;24.00;75.40;;;;;;6228997;28;20054;-80
2023/10/04 10:31:26;;;;;;;;;;;24.30;74.20;;;;;;6224077;28;20050;-79
2023/10/04 10:34:30;;;;;;;5.10;1.00;;;24.20;75.40;;;;;;6203539;28;19928;-80
2023/10/04 10:37:35;;;;;;;4.93;0.85;;;24.40;74.70;;;;;;6205426;28;20047;-79
2023/10/04 10:40:37;;;;;;;5.13;1.60;;;24.90;73.90;;;;;;6227654;28;20522;-80
2023/10/04 10:44:17;;;;;;;3.05;1.02;;;25.40;72.50;;;;;;6205973;28;20101;-80
2023/10/04 10:47:23;;;;;;;6.32;1.45;;;25.70;71.10;;;;;;6206434;28;20121;-80
2023/10/04 10:50:37;;;;;;;2.38;0.70;;;25.90;69.90;;;;;;6204825;28;20144;-80
2023/10/04 10:53:39;;;;;;;2.30;1.17;;;25.90;69.70;;;;;;6216935;28;20069;-80
2023/10/04 10:56:41;;;;;;;3.15;1.15;;;25.90;68.50;;;;;;6213661;28;20046;-79
2023/10/04 10:59:43;;;;;;;2.53;0.80;;;26.10;67.90;;;;;;6230502;28;20048;-79
2023/10/04 11:02:45;;;;;;;4.35;2.33;;;26.20;66.80;;;;;;6227375;28;20153;-80
2023/10/04 11:05:48;;;;;;;2.67;1.85;;;26.10;65.90;;;;;;6205052;28;20050;-80
2023/10/04 11:08:50;;;;;;;1.70;1.60;;;26.20;65.50;;;;;;6200930;28;20046;-78
2023/10/04 11:11:52;;;;;;;4.50;1.05;;;26.40;64.90;;;;;;6205324;28;20042;-79
2023/10/04 11:14:54;;;;;;;2.40;1.02;;;26.60;64.20;;;;;;6206474;28;20045;-79
2023/10/04 11:17:56;;;;;;;1.13;0.68;;;26.60;63.40;;;;;;6206432;28;20042;-80
2023/10/04 11:21:04;;;;;;;2.10;0.68;;;26.50;62.70;;;;;;6207127;28;20057;-80
2023/10/04 11:24:09;;;;;;;2.45;1.67;;;26.40;62.80;;;;;;6206275;28;20050;-79
2023/10/04 11:27:12;;;;;;;4.15;0.80;;;26.10;62.80;;;;;;6205162;28;20458;-79
2023/10/04 11:30:16;;;;;;;1.45;0.63;;;25.90;62.70;;;;;;6205230;28;20380;-79
2023/10/04 11:33:18;;;;;;;4.70;2.15;;;25.80;62.80;;;;;;6226469;28;20144;-82
2023/10/04 11:36:22;;;;;;;2.63;0.70;;;25.80;62.30;;;;;;6216951;28;20056;-80
2023/10/04 11:39:33;;;;;;;1.60;0.68;;;25.80;61.40;;;;;;6206704;28;20109;-80
2023/10/04 11:42:34;;;;;;;3.22;1.50;;;25.80;60.90;;;;;;6219781;28;20046;-80
2023/10/04 11:45:37;;;;;;;1.92;0.80;;;25.60;60.80;;;;;;6230002;28;20048;-79
2023/10/04 11:48:39;;;;;;;0.40;0.40;;;25.40;61.20;;;;;;6231322;28;20080;-79
2023/10/04 11:51:43;;;;;;;1.58;0.80;;;25.10;60.90;;;;;;6229317;28;20050;-80
2023/10/04 11:54:45;;;;;;;3.10;0.63;;;24.70;61.00;;;;;;6194157;28;20047;-80
2023/10/04 11:57:47;;;;;;;4.63;0.93;;;24.50;61.80;;;;;;6206272;28;20419;-79
2023/10/04 12:00:52;;;;;;;5.70;1.02;;;24.40;62.00;;;;;;6208914;28;20076;-79
2023/10/04 12:03:55;;;;;;;2.25;0.80;;;24.20;61.80;;;;;;6224851;28;20056;-80
2023/10/04 12:07:02;;;;;;;1.77;0.98;;;24.00;62.50;;;;;;6230895;28;20069;-80
2023/10/04 12:10:05;;;;;;;5.63;1.35;;;23.80;63.20;;;;;;6231609;28;20111;-80
2023/10/04 12:13:07;;;;;;;2.53;0.70;;;23.60;64.00;;;;;;6231624;28;20054;-80
2023/10/04 12:16:09;;;;;;;2.85;0.77;;;23.40;64.40;;;;;;6232470;28;20052;-80
2023/10/04 12:19:10;;;;;;;2.63;1.02;;;23.30;65.00;;;;;;6211096;28;20042;-80
2023/10/04 12:22:14;;;;;;;2.13;0.98;;;23.20;65.00;;;;;;6214660;28;20065;-79
2023/10/04 12:25:16;;;;;;;5.10;2.70;;;23.00;65.10;;;;;;6219020;28;20042;-80
2023/10/04 12:28:19;;;;;;;2.53;1.02;;;22.70;65.60;;;;;;6205776;28;20054;-80
2023/10/04 12:31:21;;;;;;;2.22;0.98;;;22.50;66.80;;;;;;6201793;28;20051;-81
2023/10/04 12:34:24;;;;;;;7.40;1.30;;;22.50;66.40;;;;;;6200662;28;20042;-80
2023/10/04 12:37:28;;;;;;;2.90;0.70;;;22.60;66.20;;;;;;6203739;28;20050;-80
2023/10/04 12:40:29;;;;;;;3.03;2.25;;;22.60;65.60;;;;;;6206273;28;20492;-79
2023/10/04 12:43:31;;;;;;;1.13;0.90;;;22.60;65.60;;;;;;6219518;28;20046;-80
2023/10/04 12:46:33;;;;;;;2.40;1.17;;;22.60;65.40;;;;;;6229274;28;20531;-81
2023/10/04 12:49:35;;;;;;;3.95;1.63;;;22.50;65.50;;;;;;6231837;28;20045;-81
2023/10/04 12:52:39;;;;;;;7.90;1.60;;;22.40;65.80;;;;;;6230085;28;20102;-83
2023/10/04 12:55:42;;;;;;;9.93;4.10;;;22.20;65.70;;;;;;6207407;28;20500;-79
2023/10/04 12:58:46;;;;;;;4.45;3.58;;;22.30;65.90;;;;;;6202430;28;20046;-79
2023/10/04 13:01:48;;;;;;;5.85;2.00;;;22.50;65.30;;;;;;6189138;28;20058;-80
2023/10/04 13:04:51;;;;;;;2.83;1.33;;;22.80;64.70;;;;;;6182662;28;20291;-80
2023/10/04 13:07:54;;;;;;;2.75;1.45;;;23.00;63.80;;;;;;6182113;28;20496;-78
2023/10/04 13:10:58;;;;;;;1.75;1.45;;;23.20;63.40;;;;;;6186819;28;20051;-79
2023/10/04 13:14:01;;;;;;;1.83;0.60;;;23.50;62.90;;;;;;6186107;28;20050;-79
2023/10/04 13:17:05;;;;;;;3.15;1.15;;;23.50;62.20;;;;;;6181426;28;20076;-81
2023/10/04 13:20:10;;;;;;;3.25;1.23;;;23.60;61.90;;;;;;6185748;28;20427;-80
2023/10/04 13:23:13;;;;;;;6.53;2.28;;;23.70;61.40;;;;;;6190324;28;20046;-80
2023/10/04 13:26:14;;;;;;;3.05;1.83;;;23.80;61.30;;;;;;6193202;28;20051;-81
2023/10/04 13:29:16;;;;;;;4.50;2.08;;;23.90;61.00;;;;;;6194890;28;20046;-79
2023/10/04 13:32:19;;;;;;;3.17;1.75;;;23.80;60.30;;;;;;6188508;28;20062;-80
2023/10/04 13:35:20;;;;;;;3.78;0.95;;;23.70;60.30;;;;;;6195505;28;20527;-79
2023/10/04 13:38:24;;;;;;;6.03;1.10;;;23.60;60.10;;;;;;6189536;28;20406;-79
2023/10/04 13:41:25;;;;;;;3.72;1.90;;;23.50;59.80;;;;;;6187939;28;20054;-79
2023/10/04 13:44:27;;;;;;;3.58;1.23;;;23.50;60.00;;;;;;6208883;28;20133;-79
2023/10/04 13:47:29;;;;;;;1.48;1.17;;;23.60;59.70;;;;;;6213807;28;20113;-80
2023/10/04 13:50:30;;;;;;;2.78;1.30;;;23.70;59.50;;;;;;6206130;28;20074;-79
2023/10/04 13:53:34;;;;;;;2.08;0.73;;;23.90;59.20;;;;;;6182251;28;20102;-79
2023/10/04 13:56:36;;;;;;;2.55;0.77;;;24.00;58.90;;;;;;6187105;28;20499;-78
2023/10/04 13:59:38;;;;;;;1.10;0.55;;;24.00;58.80;;;;;;6201940;28;20073;-79
2023/10/04 14:02:40;;;;;;;2.15;1.00;;;23.90;58.90;;;;;;6202837;28;20062;-79
2023/10/04 14:05:42;;;;;;;0.57;0.52;;;23.80;58.50;;;;;;6204710;28;20050;-79
2023/10/04 14:08:45;;;;;;;2.63;1.20;;;23.80;58.50;;;;;;6201605;28;20057;-78
2023/10/04 14:11:47;;;;;;;2.63;1.33;;;23.70;58.30;;;;;;6193455;28;20042;-79
2023/10/04 14:14:51;;;;;;;2.78;0.65;;;23.50;58.70;;;;;;6211546;28;20046;-79
2023/10/04 14:17:53;;;;;;;1.13;0.93;;;23.30;58.90;;;;;;6206219;28;20046;-79
2023/10/04 14:20:57;;;;;;;1.77;0.80;;;23.10;59.10;;;;;;6197125;28;20060;-78
2023/10/04 14:24:00;;;;;;;0.80;0.68;;;22.90;59.50;;;;;;6189414;28;20101;-78
2023/10/04 14:27:02;;;;;;;0.93;0.55;;;22.70;59.80;;;;;;6195726;28;20043;-78
2023/10/04 14:30:08;;;;;;;2.10;0.90;;;22.50;59.90;;;;;;6196861;28;20055;-79
2023/10/04 14:33:09;;;;;;;3.65;1.10;;;22.30;60.00;;;;;;6196562;28;20545;-78
2023/10/04 14:36:11;;;;;;;1.55;0.82;;;22.20;60.70;;;;;;6193525;28;20065;-79
2023/10/04 14:39:16;;;;;;;7.43;1.25;;;22.30;60.80;;;;;;6202524;28;20053;-78
2023/10/04 14:42:20;;;;;;;2.20;1.00;;;22.30;60.80;;;;;;6205403;28;20053;-79
2023/10/04 14:45:22;;;;;;;7.97;1.08;;;22.20;60.90;;;;;;6201350;28;20487;-79
2023/10/04 14:48:24;;;;;;;3.53;0.88;;;22.00;61.00;;;;;;6200156;28;20059;-78
2023/10/04 14:51:26;;;;;;;2.17;0.77;;;21.80;61.30;;;;;;6194860;28;20106;-79
2023/10/04 14:54:33;;;;;;;4.72;1.20;;;21.60;61.70;;;;;;6186216;28;20055;-79
2023/10/04 14:57:35;;;;;;;1.98;0.85;;;21.40;62.10;;;;;;6186571;28;20050;-79
2023/10/04 15:00:37;;;;;;;2.70;1.10;;;21.30;62.30;;;;;;6191057;28;20153;-78
2023/10/04 15:03:39;;;;;;;2.90;0.82;;;21.10;62.50;;;;;;6194203;28;20064;-79
2023/10/04 15:06:40;;;;;;;2.15;1.15;;;21.00;62.50;;;;;;6203205;28;20046;-78
2023/10/04 15:09:43;;;;;;;2.47;0.98;;;20.80;62.50;;;;;;6207597;28;20081;-78
2023/10/04 15:12:47;;;;;;;4.03;1.50;;;20.80;62.70;;;;;;6187049;28;20102;-79
2023/10/04 15:15:49;;;;;;;1.67;1.13;;;20.70;63.10;;;;;;6203960;28;20049;-78
2023/10/04 15:18:50;;;;;;;2.80;0.68;;;20.50;63.10;;;;;;6198068;28;20445;-80
2023/10/04 15:21:52;;;;;;;3.65;0.82;;;20.50;63.10;;;;;;6187855;28;20057;-80
2023/10/04 15:24:56;;;;;;;2.03;1.17;;;20.40;63.10;;;;;;6179678;28;20051;-78
2023/10/04 15:27:58;;;;;;;1.65;1.45;;;20.40;63.50;;;;;;6191053;28;20046;-78
2023/10/04 15:31:01;;;;;;;1.23;0.98;;;20.30;63.50;;;;;;6197506;28;20057;-77
2023/10/04 15:34:04;;;;;;;1.52;1.13;;;20.20;63.80;;;;;;6208587;28;20043;-80
2023/10/04 15:37:06;;;;;;;3.60;1.13;;;20.20;64.60;;;;;;6189040;28;20047;-78
2023/10/04 15:40:13;;;;;;;3.22;1.20;;;20.10;64.80;;;;;;6192775;28;20501;-80
2023/10/04 15:43:17;;;;;;;22.23;13.70;;;20.00;65.00;;;;;;6181011;28;20055;-80
2023/10/04 15:46:18;;;;;;;3.47;2.13;;;19.90;65.30;;;;;;6188251;28;20050;-80
2023/10/04 15:49:20;;;;;;;10.05;5.10;;;19.70;66.00;;;;;;6200091;28;20046;-81
2023/10/04 15:52:22;;;;;;;3.13;1.42;;;19.60;66.80;;;;;;6196783;28;20058;-81
2023/10/04 15:55:25;;;;;;;1.67;0.98;;;19.50;67.20;;;;;;6193115;28;20046;-81
2023/10/04 15:58:27;;;;;;;3.75;1.08;;;19.40;67.70;;;;;;6197117;28;20129;-80